sensor_id;sensor_type;location;lat;lon;timestamp;P1;durP1;ratioP1;P2;durP2;ratioP2
33501;SDS011;22396;51.070;4.974;2022-12-07T00:01:53;17.13;;;9.40;;
33501;SDS011;22396;51.070;4.974;2022-12-07T00:04:18;17.37;;;8.13;;
33501;SDS011;22396;51.070;4.974;2022-12-07T00:06:44;16.20;;;8.33;;
33501;SDS011;22396;51.070;4.974;2022-12-07T00:09:11;18.23;;;8.70;;
33501;SDS011;22396;51.070;4.974;2022-12-07T00:11:36;18.30;;;9.00;;
33501;SDS011;22396;51.070;4.974;2022-12-07T00:14:02;15.30;;;8.43;;
33501;SDS011;22396;51.070;4.974;2022-12-07T00:16:29;18.37;;;9.37;;
33501;SDS011;22396;51.070;4.974;2022-12-07T00:18:55;18.13;;;8.97;;
33501;SDS011;22396;51.070;4.974;2022-12-07T00:21:22;18.17;;;9.13;;
33501;SDS011;22396;51.070;4.974;2022-12-07T00:23:48;16.93;;;9.07;;
33501;SDS011;22396;51.070;4.974;2022-12-07T00:26:17;21.50;;;9.00;;
33501;SDS011;22396;51.070;4.974;2022-12-07T00:28:46;16.73;;;8.40;;
33501;SDS011;22396;51.070;4.974;2022-12-07T00:31:12;23.37;;;8.90;;
33501;SDS011;22396;51.070;4.974;2022-12-07T00:33:38;19.80;;;9.17;;
33501;SDS011;22396;51.070;4.974;2022-12-07T00:36:04;16.63;;;8.37;;
33501;SDS011;22396;51.070;4.974;2022-12-07T00:38:31;16.70;;;8.43;;
33501;SDS011;22396;51.070;4.974;2022-12-07T00:40:57;17.23;;;8.43;;
33501;SDS011;22396;51.070;4.974;2022-12-07T00:43:23;16.70;;;8.63;;
33501;SDS011;22396;51.070;4.974;2022-12-07T00:45:48;18.27;;;8.60;;
33501;SDS011;22396;51.070;4.974;2022-12-07T00:48:13;19.30;;;8.97;;
33501;SDS011;22396;51.070;4.974;2022-12-07T00:50:38;19.10;;;8.97;;
33501;SDS011;22396;51.070;4.974;2022-12-07T00:53:03;22.03;;;9.27;;
33501;SDS011;22396;51.070;4.974;2022-12-07T00:55:32;15.97;;;8.67;;
33501;SDS011;22396;51.070;4.974;2022-12-07T00:57:57;21.00;;;9.73;;
33501;SDS011;22396;51.070;4.974;2022-12-07T01:00:22;17.13;;;8.43;;
33501;SDS011;22396;51.070;4.974;2022-12-07T01:02:47;17.33;;;8.90;;
33501;SDS011;22396;51.070;4.974;2022-12-07T01:05:13;16.07;;;8.93;;
33501;SDS011;22396;51.070;4.974;2022-12-07T01:07:38;17.27;;;8.33;;
33501;SDS011;22396;51.070;4.974;2022-12-07T01:10:03;16.27;;;8.43;;
33501;SDS011;22396;51.070;4.974;2022-12-07T01:12:29;17.17;;;8.40;;
33501;SDS011;22396;51.070;4.974;2022-12-07T01:14:54;17.93;;;8.80;;
33501;SDS011;22396;51.070;4.974;2022-12-07T01:17:19;16.97;;;8.70;;
33501;SDS011;22396;51.070;4.974;2022-12-07T01:19:44;17.53;;;8.80;;
33501;SDS011;22396;51.070;4.974;2022-12-07T01:22:09;17.43;;;8.03;;
33501;SDS011;22396;51.070;4.974;2022-12-07T01:24:35;16.17;;;7.90;;
33501;SDS011;22396;51.070;4.974;2022-12-07T01:27:00;19.50;;;8.40;;
33501;SDS011;22396;51.070;4.974;2022-12-07T01:29:25;16.33;;;8.10;;
33501;SDS011;22396;51.070;4.974;2022-12-07T01:31:50;22.30;;;8.30;;
33501;SDS011;22396;51.070;4.974;2022-12-07T01:34:15;14.87;;;8.33;;
33501;SDS011;22396;51.070;4.974;2022-12-07T01:36:41;18.27;;;8.10;;
33501;SDS011;22396;51.070;4.974;2022-12-07T01:39:06;18.03;;;9.20;;
33501;SDS011;22396;51.070;4.974;2022-12-07T01:41:33;16.57;;;8.50;;
33501;SDS011;22396;51.070;4.974;2022-12-07T01:44:18;16.00;;;7.90;;
33501;SDS011;22396;51.070;4.974;2022-12-07T01:46:48;18.90;;;8.87;;
33501;SDS011;22396;51.070;4.974;2022-12-07T01:49:26;15.23;;;7.47;;
33501;SDS011;22396;51.070;4.974;2022-12-07T01:51:54;18.20;;;8.63;;
33501;SDS011;22396;51.070;4.974;2022-12-07T01:54:22;18.67;;;9.03;;
33501;SDS011;22396;51.070;4.974;2022-12-07T01:56:51;16.97;;;9.37;;
33501;SDS011;22396;51.070;4.974;2022-12-07T01:59:18;17.53;;;8.67;;
33501;SDS011;22396;51.070;4.974;2022-12-07T02:01:44;18.17;;;8.87;;
33501;SDS011;22396;51.070;4.974;2022-12-07T02:04:10;16.43;;;8.40;;
33501;SDS011;22396;51.070;4.974;2022-12-07T02:06:36;15.23;;;8.60;;
33501;SDS011;22396;51.070;4.974;2022-12-07T02:09:02;20.43;;;8.13;;
33501;SDS011;22396;51.070;4.974;2022-12-07T02:11:27;16.27;;;8.00;;
33501;SDS011;22396;51.070;4.974;2022-12-07T02:13:52;14.47;;;8.27;;
33501;SDS011;22396;51.070;4.974;2022-12-07T02:16:24;19.00;;;8.93;;
33501;SDS011;22396;51.070;4.974;2022-12-07T02:19:16;17.43;;;9.13;;
33501;SDS011;22396;51.070;4.974;2022-12-07T02:21:51;18.23;;;8.63;;
33501;SDS011;22396;51.070;4.974;2022-12-07T02:32:48;20.87;;;9.00;;
33501;SDS011;22396;51.070;4.974;2022-12-07T02:35:20;20.13;;;9.40;;
33501;SDS011;22396;51.070;4.974;2022-12-07T02:37:55;18.87;;;8.70;;
33501;SDS011;22396;51.070;4.974;2022-12-07T02:43:03;18.73;;;8.87;;
33501;SDS011;22396;51.070;4.974;2022-12-07T02:45:29;20.70;;;10.13;;
33501;SDS011;22396;51.070;4.974;2022-12-07T02:47:56;19.10;;;9.83;;
33501;SDS011;22396;51.070;4.974;2022-12-07T02:50:23;23.00;;;9.63;;
33501;SDS011;22396;51.070;4.974;2022-12-07T02:52:49;17.13;;;8.70;;
33501;SDS011;22396;51.070;4.974;2022-12-07T02:55:15;20.83;;;9.90;;
33501;SDS011;22396;51.070;4.974;2022-12-07T03:00:27;21.53;;;10.13;;
33501;SDS011;22396;51.070;4.974;2022-12-07T03:03:00;22.13;;;9.33;;
33501;SDS011;22396;51.070;4.974;2022-12-07T03:15:46;17.60;;;8.83;;
33501;SDS011;22396;51.070;4.974;2022-12-07T03:18:16;17.50;;;8.93;;
33501;SDS011;22396;51.070;4.974;2022-12-07T03:20:43;15.10;;;8.17;;
33501;SDS011;22396;51.070;4.974;2022-12-07T03:23:09;17.83;;;8.40;;
33501;SDS011;22396;51.070;4.974;2022-12-07T03:25:35;12.67;;;7.60;;
33501;SDS011;22396;51.070;4.974;2022-12-07T03:28:05;17.67;;;9.53;;
33501;SDS011;22396;51.070;4.974;2022-12-07T03:30:42;15.13;;;8.07;;
33501;SDS011;22396;51.070;4.974;2022-12-07T03:33:11;17.47;;;9.07;;
33501;SDS011;22396;51.070;4.974;2022-12-07T03:35:41;18.23;;;8.73;;
33501;SDS011;22396;51.070;4.974;2022-12-07T03:38:17;19.23;;;8.97;;
33501;SDS011;22396;51.070;4.974;2022-12-07T03:40:50;18.43;;;9.40;;
33501;SDS011;22396;51.070;4.974;2022-12-07T03:43:19;21.30;;;9.53;;
33501;SDS011;22396;51.070;4.974;2022-12-07T03:45:51;14.73;;;8.27;;
33501;SDS011;22396;51.070;4.974;2022-12-07T03:48:22;19.50;;;9.67;;
33501;SDS011;22396;51.070;4.974;2022-12-07T03:53:22;17.30;;;9.27;;
33501;SDS011;22396;51.070;4.974;2022-12-07T03:55:49;21.37;;;9.27;;
33501;SDS011;22396;51.070;4.974;2022-12-07T03:58:16;22.23;;;9.27;;
33501;SDS011;22396;51.070;4.974;2022-12-07T04:00:43;21.43;;;9.73;;
33501;SDS011;22396;51.070;4.974;2022-12-07T04:03:08;18.50;;;9.20;;
33501;SDS011;22396;51.070;4.974;2022-12-07T04:05:34;16.93;;;9.03;;
33501;SDS011;22396;51.070;4.974;2022-12-07T04:07:59;16.30;;;8.37;;
33501;SDS011;22396;51.070;4.974;2022-12-07T04:10:25;15.97;;;8.47;;
33501;SDS011;22396;51.070;4.974;2022-12-07T04:12:50;17.17;;;8.60;;
33501;SDS011;22396;51.070;4.974;2022-12-07T04:15:15;17.57;;;8.03;;
33501;SDS011;22396;51.070;4.974;2022-12-07T04:17:43;20.80;;;9.00;;
33501;SDS011;22396;51.070;4.974;2022-12-07T04:20:08;16.33;;;8.77;;
33501;SDS011;22396;51.070;4.974;2022-12-07T04:22:33;19.17;;;8.73;;
33501;SDS011;22396;51.070;4.974;2022-12-07T04:24:58;15.90;;;8.43;;
33501;SDS011;22396;51.070;4.974;2022-12-07T04:27:24;14.73;;;8.27;;
33501;SDS011;22396;51.070;4.974;2022-12-07T04:29:49;14.37;;;7.73;;
33501;SDS011;22396;51.070;4.974;2022-12-07T04:32:14;16.23;;;8.83;;
33501;SDS011;22396;51.070;4.974;2022-12-07T04:34:39;23.93;;;10.80;;
33501;SDS011;22396;51.070;4.974;2022-12-07T04:37:04;27.30;;;11.03;;
33501;SDS011;22396;51.070;4.974;2022-12-07T04:39:31;33.63;;;15.40;;
33501;SDS011;22396;51.070;4.974;2022-12-07T04:41:56;40.50;;;14.93;;
33501;SDS011;22396;51.070;4.974;2022-12-07T04:44:22;23.93;;;11.13;;
33501;SDS011;22396;51.070;4.974;2022-12-07T04:46:48;30.93;;;12.30;;
33501;SDS011;22396;51.070;4.974;2022-12-07T04:49:13;36.37;;;14.00;;
33501;SDS011;22396;51.070;4.974;2022-12-07T04:51:38;35.20;;;14.47;;
33501;SDS011;22396;51.070;4.974;2022-12-07T04:54:04;33.20;;;13.70;;
33501;SDS011;22396;51.070;4.974;2022-12-07T04:56:29;32.47;;;13.33;;
33501;SDS011;22396;51.070;4.974;2022-12-07T04:58:55;22.90;;;11.07;;
33501;SDS011;22396;51.070;4.974;2022-12-07T05:01:20;25.33;;;12.73;;
33501;SDS011;22396;51.070;4.974;2022-12-07T05:03:45;22.77;;;11.43;;
33501;SDS011;22396;51.070;4.974;2022-12-07T05:06:11;20.77;;;10.77;;
33501;SDS011;22396;51.070;4.974;2022-12-07T05:08:36;21.90;;;9.77;;
33501;SDS011;22396;51.070;4.974;2022-12-07T05:11:02;23.17;;;10.37;;
33501;SDS011;22396;51.070;4.974;2022-12-07T05:13:28;21.33;;;10.30;;
33501;SDS011;22396;51.070;4.974;2022-12-07T05:15:53;20.97;;;10.67;;
33501;SDS011;22396;51.070;4.974;2022-12-07T05:18:18;24.07;;;11.03;;
33501;SDS011;22396;51.070;4.974;2022-12-07T05:20:44;28.57;;;11.63;;
33501;SDS011;22396;51.070;4.974;2022-12-07T05:23:09;21.50;;;11.33;;
33501;SDS011;22396;51.070;4.974;2022-12-07T05:25:34;22.37;;;11.37;;
33501;SDS011;22396;51.070;4.974;2022-12-07T05:28:00;21.60;;;11.97;;
33501;SDS011;22396;51.070;4.974;2022-12-07T05:30:25;24.30;;;12.63;;
33501;SDS011;22396;51.070;4.974;2022-12-07T05:32:51;22.73;;;11.27;;
33501;SDS011;22396;51.070;4.974;2022-12-07T05:35:16;27.00;;;11.37;;
33501;SDS011;22396;51.070;4.974;2022-12-07T05:37:42;22.57;;;12.30;;
33501;SDS011;22396;51.070;4.974;2022-12-07T05:40:07;24.70;;;11.77;;
33501;SDS011;22396;51.070;4.974;2022-12-07T05:42:33;23.67;;;11.67;;
33501;SDS011;22396;51.070;4.974;2022-12-07T05:44:58;25.30;;;11.73;;
33501;SDS011;22396;51.070;4.974;2022-12-07T05:47:23;18.97;;;10.43;;
33501;SDS011;22396;51.070;4.974;2022-12-07T05:49:48;20.87;;;10.67;;
33501;SDS011;22396;51.070;4.974;2022-12-07T05:52:14;20.53;;;9.97;;
33501;SDS011;22396;51.070;4.974;2022-12-07T05:54:39;23.23;;;10.70;;
33501;SDS011;22396;51.070;4.974;2022-12-07T05:57:04;21.40;;;10.50;;
33501;SDS011;22396;51.070;4.974;2022-12-07T05:59:29;24.50;;;10.47;;
33501;SDS011;22396;51.070;4.974;2022-12-07T06:04:20;20.17;;;9.60;;
33501;SDS011;22396;51.070;4.974;2022-12-07T06:06:46;21.00;;;9.97;;
33501;SDS011;22396;51.070;4.974;2022-12-07T06:09:11;22.33;;;9.93;;
33501;SDS011;22396;51.070;4.974;2022-12-07T06:11:40;21.10;;;9.73;;
33501;SDS011;22396;51.070;4.974;2022-12-07T06:14:24;20.83;;;9.50;;
33501;SDS011;22396;51.070;4.974;2022-12-07T06:16:49;22.43;;;9.80;;
33501;SDS011;22396;51.070;4.974;2022-12-07T06:19:14;18.43;;;8.93;;
33501;SDS011;22396;51.070;4.974;2022-12-07T06:21:39;18.77;;;8.50;;
33501;SDS011;22396;51.070;4.974;2022-12-07T06:24:05;18.87;;;9.47;;
33501;SDS011;22396;51.070;4.974;2022-12-07T06:26:30;18.70;;;8.73;;
33501;SDS011;22396;51.070;4.974;2022-12-07T06:28:55;18.13;;;8.93;;
33501;SDS011;22396;51.070;4.974;2022-12-07T06:31:21;24.17;;;8.77;;
33501;SDS011;22396;51.070;4.974;2022-12-07T06:33:46;21.67;;;10.10;;
33501;SDS011;22396;51.070;4.974;2022-12-07T06:36:11;19.43;;;9.40;;
33501;SDS011;22396;51.070;4.974;2022-12-07T06:38:37;20.60;;;10.30;;
33501;SDS011;22396;51.070;4.974;2022-12-07T06:41:02;21.47;;;10.20;;
33501;SDS011;22396;51.070;4.974;2022-12-07T06:43:27;22.03;;;9.73;;
33501;SDS011;22396;51.070;4.974;2022-12-07T06:45:53;18.37;;;9.60;;
33501;SDS011;22396;51.070;4.974;2022-12-07T06:48:18;19.83;;;10.03;;
33501;SDS011;22396;51.070;4.974;2022-12-07T06:50:47;24.80;;;10.57;;
33501;SDS011;22396;51.070;4.974;2022-12-07T06:53:12;22.27;;;9.90;;
33501;SDS011;22396;51.070;4.974;2022-12-07T06:55:37;20.53;;;10.27;;
33501;SDS011;22396;51.070;4.974;2022-12-07T06:58:02;21.80;;;10.00;;
33501;SDS011;22396;51.070;4.974;2022-12-07T07:00:28;20.73;;;10.17;;
33501;SDS011;22396;51.070;4.974;2022-12-07T07:02:53;21.57;;;10.73;;
33501;SDS011;22396;51.070;4.974;2022-12-07T07:05:18;22.47;;;10.67;;
33501;SDS011;22396;51.070;4.974;2022-12-07T07:07:46;18.43;;;9.03;;
33501;SDS011;22396;51.070;4.974;2022-12-07T07:10:11;22.40;;;10.50;;
33501;SDS011;22396;51.070;4.974;2022-12-07T07:12:36;22.10;;;10.07;;
33501;SDS011;22396;51.070;4.974;2022-12-07T07:15:01;17.30;;;9.73;;
33501;SDS011;22396;51.070;4.974;2022-12-07T07:17:27;17.87;;;9.13;;
33501;SDS011;22396;51.070;4.974;2022-12-07T07:19:52;24.03;;;10.03;;
33501;SDS011;22396;51.070;4.974;2022-12-07T07:22:17;20.47;;;10.43;;
33501;SDS011;22396;51.070;4.974;2022-12-07T07:24:42;20.57;;;9.27;;
33501;SDS011;22396;51.070;4.974;2022-12-07T07:27:07;21.17;;;9.73;;
33501;SDS011;22396;51.070;4.974;2022-12-07T07:29:32;17.70;;;9.30;;
33501;SDS011;22396;51.070;4.974;2022-12-07T07:31:58;19.20;;;9.13;;
33501;SDS011;22396;51.070;4.974;2022-12-07T07:34:24;21.97;;;8.83;;
33501;SDS011;22396;51.070;4.974;2022-12-07T07:36:49;19.00;;;9.10;;
33501;SDS011;22396;51.070;4.974;2022-12-07T07:39:14;19.43;;;8.83;;
33501;SDS011;22396;51.070;4.974;2022-12-07T07:41:39;16.23;;;8.53;;
33501;SDS011;22396;51.070;4.974;2022-12-07T07:44:05;18.40;;;9.10;;
33501;SDS011;22396;51.070;4.974;2022-12-07T07:46:30;17.57;;;9.53;;
33501;SDS011;22396;51.070;4.974;2022-12-07T07:48:56;17.63;;;9.03;;
33501;SDS011;22396;51.070;4.974;2022-12-07T07:51:21;19.43;;;9.27;;
33501;SDS011;22396;51.070;4.974;2022-12-07T07:53:46;19.37;;;9.57;;
33501;SDS011;22396;51.070;4.974;2022-12-07T07:56:11;18.77;;;9.37;;
33501;SDS011;22396;51.070;4.974;2022-12-07T07:58:36;22.63;;;9.50;;
33501;SDS011;22396;51.070;4.974;2022-12-07T08:01:04;18.57;;;8.57;;
33501;SDS011;22396;51.070;4.974;2022-12-07T08:03:30;16.67;;;8.80;;
33501;SDS011;22396;51.070;4.974;2022-12-07T08:05:55;19.80;;;8.23;;
33501;SDS011;22396;51.070;4.974;2022-12-07T08:08:20;14.30;;;8.47;;
33501;SDS011;22396;51.070;4.974;2022-12-07T08:10:45;17.73;;;8.27;;
33501;SDS011;22396;51.070;4.974;2022-12-07T08:13:11;16.10;;;7.87;;
33501;SDS011;22396;51.070;4.974;2022-12-07T08:15:37;16.97;;;8.57;;
33501;SDS011;22396;51.070;4.974;2022-12-07T08:18:03;17.03;;;9.17;;
33501;SDS011;22396;51.070;4.974;2022-12-07T08:20:29;18.60;;;8.90;;
33501;SDS011;22396;51.070;4.974;2022-12-07T08:22:55;15.67;;;8.87;;
33501;SDS011;22396;51.070;4.974;2022-12-07T08:25:20;17.23;;;8.63;;
33501;SDS011;22396;51.070;4.974;2022-12-07T08:27:47;17.47;;;8.27;;
33501;SDS011;22396;51.070;4.974;2022-12-07T08:30:12;17.47;;;8.23;;
33501;SDS011;22396;51.070;4.974;2022-12-07T08:32:38;12.83;;;7.60;;
33501;SDS011;22396;51.070;4.974;2022-12-07T08:35:03;15.70;;;7.93;;
33501;SDS011;22396;51.070;4.974;2022-12-07T08:37:28;17.97;;;6.57;;
33501;SDS011;22396;51.070;4.974;2022-12-07T08:39:53;20.00;;;6.80;;
33501;SDS011;22396;51.070;4.974;2022-12-07T08:42:19;13.80;;;6.47;;
33501;SDS011;22396;51.070;4.974;2022-12-07T08:44:45;15.40;;;6.60;;
33501;SDS011;22396;51.070;4.974;2022-12-07T08:47:10;14.17;;;6.53;;
33501;SDS011;22396;51.070;4.974;2022-12-07T08:49:37;15.37;;;6.00;;
33501;SDS011;22396;51.070;4.974;2022-12-07T08:52:03;18.23;;;7.23;;
33501;SDS011;22396;51.070;4.974;2022-12-07T08:54:29;14.83;;;6.93;;
33501;SDS011;22396;51.070;4.974;2022-12-07T08:56:57;13.07;;;7.10;;
33501;SDS011;22396;51.070;4.974;2022-12-07T08:59:25;17.10;;;7.00;;
33501;SDS011;22396;51.070;4.974;2022-12-07T09:01:51;11.47;;;5.90;;
33501;SDS011;22396;51.070;4.974;2022-12-07T09:04:16;14.53;;;6.03;;
33501;SDS011;22396;51.070;4.974;2022-12-07T09:06:41;16.60;;;4.93;;
33501;SDS011;22396;51.070;4.974;2022-12-07T09:09:07;13.70;;;6.00;;
33501;SDS011;22396;51.070;4.974;2022-12-07T09:11:32;12.03;;;6.00;;
33501;SDS011;22396;51.070;4.974;2022-12-07T09:13:57;12.87;;;6.00;;
33501;SDS011;22396;51.070;4.974;2022-12-07T09:16:23;12.30;;;5.97;;
33501;SDS011;22396;51.070;4.974;2022-12-07T09:18:48;13.10;;;6.33;;
33501;SDS011;22396;51.070;4.974;2022-12-07T09:21:13;11.90;;;6.40;;
33501;SDS011;22396;51.070;4.974;2022-12-07T09:23:38;16.23;;;5.83;;
33501;SDS011;22396;51.070;4.974;2022-12-07T09:26:04;13.80;;;5.90;;
33501;SDS011;22396;51.070;4.974;2022-12-07T09:28:32;12.03;;;5.93;;
33501;SDS011;22396;51.070;4.974;2022-12-07T09:30:58;13.47;;;5.90;;
33501;SDS011;22396;51.070;4.974;2022-12-07T09:33:23;14.63;;;5.40;;
33501;SDS011;22396;51.070;4.974;2022-12-07T09:35:48;13.97;;;5.80;;
33501;SDS011;22396;51.070;4.974;2022-12-07T09:38:14;13.77;;;5.53;;
33501;SDS011;22396;51.070;4.974;2022-12-07T09:40:39;13.60;;;5.57;;
33501;SDS011;22396;51.070;4.974;2022-12-07T09:43:08;13.77;;;5.67;;
33501;SDS011;22396;51.070;4.974;2022-12-07T09:45:36;9.13;;;4.97;;
33501;SDS011;22396;51.070;4.974;2022-12-07T09:48:02;13.13;;;5.30;;
33501;SDS011;22396;51.070;4.974;2022-12-07T09:50:28;16.47;;;4.87;;
33501;SDS011;22396;51.070;4.974;2022-12-07T09:52:54;15.03;;;5.50;;
33501;SDS011;22396;51.070;4.974;2022-12-07T09:55:25;10.97;;;5.73;;
33501;SDS011;22396;51.070;4.974;2022-12-07T09:57:51;14.20;;;5.50;;
33501;SDS011;22396;51.070;4.974;2022-12-07T10:00:18;14.10;;;5.43;;
33501;SDS011;22396;51.070;4.974;2022-12-07T10:02:44;9.73;;;4.33;;
33501;SDS011;22396;51.070;4.974;2022-12-07T10:05:12;11.30;;;5.40;;
33501;SDS011;22396;51.070;4.974;2022-12-07T10:07:38;8.27;;;4.63;;
33501;SDS011;22396;51.070;4.974;2022-12-07T10:10:04;9.73;;;4.90;;
33501;SDS011;22396;51.070;4.974;2022-12-07T10:12:32;12.53;;;5.23;;
33501;SDS011;22396;51.070;4.974;2022-12-07T10:15:15;12.33;;;5.20;;
33501;SDS011;22396;51.070;4.974;2022-12-07T10:17:41;9.70;;;5.00;;
33501;SDS011;22396;51.070;4.974;2022-12-07T10:23:02;18.43;;;5.63;;
33501;SDS011;22396;51.070;4.974;2022-12-07T10:25:27;23.07;;;7.73;;
33501;SDS011;22396;51.070;4.974;2022-12-07T10:30:33;17.70;;;6.27;;
33501;SDS011;22396;51.070;4.974;2022-12-07T10:35:54;12.33;;;5.67;;
33501;SDS011;22396;51.070;4.974;2022-12-07T10:38:20;12.00;;;6.17;;
33501;SDS011;22396;51.070;4.974;2022-12-07T10:40:45;9.97;;;5.37;;
33501;SDS011;22396;51.070;4.974;2022-12-07T10:48:22;14.23;;;5.43;;
33501;SDS011;22396;51.070;4.974;2022-12-07T10:51:03;12.83;;;5.77;;
33501;SDS011;22396;51.070;4.974;2022-12-07T11:08:55;10.87;;;4.87;;
33501;SDS011;22396;51.070;4.974;2022-12-07T11:16:24;10.23;;;4.67;;
33501;SDS011;22396;51.070;4.974;2022-12-07T11:18:55;12.37;;;4.60;;
33501;SDS011;22396;51.070;4.974;2022-12-07T11:37:09;11.50;;;4.00;;
33501;SDS011;22396;51.070;4.974;2022-12-07T11:39:39;12.00;;;3.83;;
33501;SDS011;22396;51.070;4.974;2022-12-07T11:42:09;12.25;;;3.72;;
33501;SDS011;22396;51.070;4.974;2022-12-07T11:44:39;9.53;;;3.30;;
33501;SDS011;22396;51.070;4.974;2022-12-07T11:47:08;6.37;;;2.60;;
33501;SDS011;22396;51.070;4.974;2022-12-07T11:52:48;8.43;;;2.60;;
33501;SDS011;22396;51.070;4.974;2022-12-07T11:55:21;8.23;;;2.70;;
33501;SDS011;22396;51.070;4.974;2022-12-07T11:57:51;10.83;;;2.80;;
33501;SDS011;22396;51.070;4.974;2022-12-07T12:00:17;5.23;;;2.30;;
33501;SDS011;22396;51.070;4.974;2022-12-07T12:02:51;8.20;;;2.77;;
33501;SDS011;22396;51.070;4.974;2022-12-07T12:05:24;14.80;;;3.07;;
33501;SDS011;22396;51.070;4.974;2022-12-07T12:10:24;8.13;;;2.20;;
33501;SDS011;22396;51.070;4.974;2022-12-07T12:23:01;7.40;;;2.73;;
33501;SDS011;22396;51.070;4.974;2022-12-07T12:28:05;8.10;;;2.60;;
33501;SDS011;22396;51.070;4.974;2022-12-07T12:33:01;6.73;;;2.23;;
33501;SDS011;22396;51.070;4.974;2022-12-07T12:35:34;8.23;;;1.80;;
33501;SDS011;22396;51.070;4.974;2022-12-07T12:40:44;8.50;;;2.25;;
33501;SDS011;22396;51.070;4.974;2022-12-07T12:46:28;8.37;;;1.53;;
33501;SDS011;22396;51.070;4.974;2022-12-07T12:48:38;7.67;;;1.77;;
33501;SDS011;22396;51.070;4.974;2022-12-07T12:53:47;6.97;;;1.92;;
33501;SDS011;22396;51.070;4.974;2022-12-07T12:58:39;7.70;;;1.80;;
33501;SDS011;22396;51.070;4.974;2022-12-07T13:03:53;4.97;;;1.83;;
33501;SDS011;22396;51.070;4.974;2022-12-07T13:06:29;5.57;;;2.33;;
33501;SDS011;22396;51.070;4.974;2022-12-07T13:08:57;8.37;;;2.57;;
33501;SDS011;22396;51.070;4.974;2022-12-07T13:11:33;11.43;;;3.00;;
33501;SDS011;22396;51.070;4.974;2022-12-07T13:16:44;6.97;;;2.77;;
33501;SDS011;22396;51.070;4.974;2022-12-07T13:25:03;9.67;;;2.90;;
33501;SDS011;22396;51.070;4.974;2022-12-07T13:27:30;15.23;;;2.53;;
33501;SDS011;22396;51.070;4.974;2022-12-07T13:29:56;7.47;;;3.07;;
33501;SDS011;22396;51.070;4.974;2022-12-07T13:32:25;8.70;;;3.13;;
33501;SDS011;22396;51.070;4.974;2022-12-07T13:34:51;13.63;;;2.90;;
33501;SDS011;22396;51.070;4.974;2022-12-07T13:39:49;5.33;;;2.87;;
33501;SDS011;22396;51.070;4.974;2022-12-07T13:42:19;10.47;;;3.30;;
33501;SDS011;22396;51.070;4.974;2022-12-07T13:44:47;7.43;;;3.40;;
33501;SDS011;22396;51.070;4.974;2022-12-07T13:47:13;9.35;;;3.05;;
33501;SDS011;22396;51.070;4.974;2022-12-07T13:49:47;8.25;;;3.03;;
33501;SDS011;22396;51.070;4.974;2022-12-07T13:52:14;10.60;;;3.00;;
33501;SDS011;22396;51.070;4.974;2022-12-07T13:54:55;8.43;;;3.20;;
33501;SDS011;22396;51.070;4.974;2022-12-07T13:57:21;7.28;;;2.28;;
33501;SDS011;22396;51.070;4.974;2022-12-07T13:59:47;9.30;;;2.90;;
33501;SDS011;22396;51.070;4.974;2022-12-07T14:04:43;10.50;;;2.90;;
33501;SDS011;22396;51.070;4.974;2022-12-07T14:07:18;10.32;;;3.17;;
33501;SDS011;22396;51.070;4.974;2022-12-07T14:09:52;9.43;;;3.00;;
33501;SDS011;22396;51.070;4.974;2022-12-07T14:12:18;9.60;;;3.13;;
33501;SDS011;22396;51.070;4.974;2022-12-07T14:14:46;6.93;;;2.53;;
33501;SDS011;22396;51.070;4.974;2022-12-07T14:17:15;7.73;;;2.50;;
33501;SDS011;22396;51.070;4.974;2022-12-07T14:20:02;5.40;;;2.80;;
33501;SDS011;22396;51.070;4.974;2022-12-07T14:25:13;8.23;;;2.67;;
33501;SDS011;22396;51.070;4.974;2022-12-07T14:27:46;6.87;;;2.27;;
33501;SDS011;22396;51.070;4.974;2022-12-07T14:30:15;7.57;;;2.75;;
33501;SDS011;22396;51.070;4.974;2022-12-07T14:32:40;8.00;;;2.53;;
33501;SDS011;22396;51.070;4.974;2022-12-07T14:35:09;3.10;;;2.10;;
33501;SDS011;22396;51.070;4.974;2022-12-07T14:37:35;6.15;;;2.55;;
33501;SDS011;22396;51.070;4.974;2022-12-07T14:40:00;5.32;;;2.15;;
33501;SDS011;22396;51.070;4.974;2022-12-07T14:42:27;6.47;;;3.00;;
33501;SDS011;22396;51.070;4.974;2022-12-07T14:44:53;8.47;;;3.10;;
33501;SDS011;22396;51.070;4.974;2022-12-07T14:47:18;12.57;;;3.23;;
33501;SDS011;22396;51.070;4.974;2022-12-07T14:49:43;10.17;;;3.07;;
33501;SDS011;22396;51.070;4.974;2022-12-07T14:52:11;5.67;;;2.90;;
33501;SDS011;22396;51.070;4.974;2022-12-07T14:54:38;8.60;;;3.55;;
33501;SDS011;22396;51.070;4.974;2022-12-07T14:57:03;11.37;;;3.43;;
33501;SDS011;22396;51.070;4.974;2022-12-07T14:59:28;6.90;;;2.73;;
33501;SDS011;22396;51.070;4.974;2022-12-07T15:01:53;9.87;;;2.63;;
33501;SDS011;22396;51.070;4.974;2022-12-07T15:04:19;5.97;;;2.27;;
33501;SDS011;22396;51.070;4.974;2022-12-07T15:06:54;6.03;;;2.77;;
33501;SDS011;22396;51.070;4.974;2022-12-07T15:09:19;5.43;;;2.73;;
33501;SDS011;22396;51.070;4.974;2022-12-07T15:11:45;10.17;;;2.87;;
33501;SDS011;22396;51.070;4.974;2022-12-07T15:14:10;7.80;;;2.80;;
33501;SDS011;22396;51.070;4.974;2022-12-07T15:16:39;7.03;;;3.47;;
33501;SDS011;22396;51.070;4.974;2022-12-07T15:19:11;8.33;;;3.80;;
33501;SDS011;22396;51.070;4.974;2022-12-07T15:21:37;9.60;;;3.83;;
33501;SDS011;22396;51.070;4.974;2022-12-07T15:24:02;11.83;;;3.77;;
33501;SDS011;22396;51.070;4.974;2022-12-07T15:26:27;8.77;;;4.57;;
33501;SDS011;22396;51.070;4.974;2022-12-07T15:28:53;10.83;;;4.13;;
33501;SDS011;22396;51.070;4.974;2022-12-07T15:31:19;6.70;;;3.63;;
33501;SDS011;22396;51.070;4.974;2022-12-07T15:33:44;7.07;;;4.13;;
33501;SDS011;22396;51.070;4.974;2022-12-07T15:36:13;9.40;;;4.30;;
33501;SDS011;22396;51.070;4.974;2022-12-07T15:38:42;8.03;;;3.60;;
33501;SDS011;22396;51.070;4.974;2022-12-07T15:41:07;9.20;;;4.00;;
33501;SDS011;22396;51.070;4.974;2022-12-07T15:43:33;6.30;;;3.53;;
33501;SDS011;22396;51.070;4.974;2022-12-07T15:46:16;8.63;;;3.80;;
33501;SDS011;22396;51.070;4.974;2022-12-07T15:48:42;7.73;;;3.90;;
33501;SDS011;22396;51.070;4.974;2022-12-07T15:51:08;18.50;;;4.13;;
33501;SDS011;22396;51.070;4.974;2022-12-07T15:53:33;8.07;;;3.93;;
33501;SDS011;22396;51.070;4.974;2022-12-07T15:55:59;7.37;;;4.00;;
33501;SDS011;22396;51.070;4.974;2022-12-07T15:58:24;7.17;;;4.00;;
33501;SDS011;22396;51.070;4.974;2022-12-07T16:00:49;7.57;;;3.43;;
33501;SDS011;22396;51.070;4.974;2022-12-07T16:03:15;5.67;;;3.17;;
33501;SDS011;22396;51.070;4.974;2022-12-07T16:05:40;6.07;;;3.27;;
33501;SDS011;22396;51.070;4.974;2022-12-07T16:08:05;6.67;;;3.47;;
33501;SDS011;22396;51.070;4.974;2022-12-07T16:10:30;7.67;;;3.47;;
33501;SDS011;22396;51.070;4.974;2022-12-07T16:12:55;8.13;;;3.30;;
33501;SDS011;22396;51.070;4.974;2022-12-07T16:15:21;8.97;;;3.50;;
33501;SDS011;22396;51.070;4.974;2022-12-07T16:17:46;6.47;;;3.17;;
33501;SDS011;22396;51.070;4.974;2022-12-07T16:20:11;5.87;;;3.07;;
33501;SDS011;22396;51.070;4.974;2022-12-07T16:22:36;8.33;;;3.13;;
33501;SDS011;22396;51.070;4.974;2022-12-07T16:25:02;7.60;;;3.10;;
33501;SDS011;22396;51.070;4.974;2022-12-07T16:27:27;11.57;;;3.00;;
33501;SDS011;22396;51.070;4.974;2022-12-07T16:29:52;7.13;;;3.33;;
33501;SDS011;22396;51.070;4.974;2022-12-07T16:32:17;5.73;;;2.83;;
33501;SDS011;22396;51.070;4.974;2022-12-07T16:34:43;6.93;;;2.57;;
33501;SDS011;22396;51.070;4.974;2022-12-07T16:37:08;8.70;;;3.20;;
33501;SDS011;22396;51.070;4.974;2022-12-07T16:39:33;8.67;;;3.30;;
33501;SDS011;22396;51.070;4.974;2022-12-07T16:41:59;7.47;;;2.90;;
33501;SDS011;22396;51.070;4.974;2022-12-07T16:44:24;8.90;;;3.40;;